Jack Robertson — WDE5993 — position and weather

sailwx.info

Track history (hours):
 
Tides and Currents Weather Stations Pressure Air Temp Water Temp Dewpoint Dewpoint Depression Visibility Wind Speed Wind Dir Waves Ship Positions

Oceanographic research ship Jack Robertson (United States)

Owner: University of Washington Applied Physics Laboratory, Seattle, WA. More information available from US FCC via Universal Licensing System and Coast Guard Vessel Documentation Center.

Last reported at 2017-Jul-21 04:32 UTC. Time now 2017-Jul-23 16:30 UTC.
Position N 47°39' W 122°19'.

; draft 1.7 m.

Type: Other ship. MMSI: 367374350.

Date/timePositionNaut miles runAvg speedWind from/ knotsBaromVisibWave heightAir tempDewpointWater temp
2017-Jul-21 04:32N 47°39' W 122°19'0 0.0
2017-Jul-21 04:31N 47°39' W 122°19'2 3.8
2017-Jul-21 04:00N 47°39' W 122°22'2 3.2
2017-Jul-21 03:31N 47°40' W 122°24'3 6.4
2017-Jul-21 03:00N 47°43' W 122°24'4 8.4
2017-Jul-21 02:31N 47°47' W 122°26'4 8.5
2017-Jul-21 02:00N 47°51' W 122°29'4 8.1
2017-Jul-21 01:30N 47°55' W 122°31'21 0.8
2017-Jul-19 23:11N 48°07' W 122°57'  
2017-Jul-17 01:45N 48°04' W 123°02'2 5.9
2017-Jul-17 01:29N 48°05' W 123°01'5 8.3
2017-Jul-17 00:55N 48°07' W 122°55'4 8.1
2017-Jul-17 00:29N 48°09' W 122°50'15 7.9
2017-Jul-16 22:36N 47°59' W 122°34'110.2
2017-Jul-16 22:30N 47°58' W 122°33'5 9.5
2017-Jul-16 22:00N 47°54' W 122°28'5 9.4
2017-Jul-16 21:30N 47°50' W 122°26'4 8.9
2017-Jul-16 21:00N 47°46' W 122°24'5 9.0
2017-Jul-16 20:30N 47°41' W 122°25'1 3.0
2017-Jul-16 20:00N 47°40' W 122°24'0 0.4
2017-Jul-16 19:30N 47°40' W 122°23'3 5.6
2017-Jul-16 19:00N 47°39' W 122°19'  
2017-Jul-14 04:21N 47°39' W 122°19'1 2.2
2017-Jul-14 04:01N 47°39' W 122°20'3 5.9
2017-Jul-14 03:31N 47°40' W 122°24'2 3.4
2017-Jul-14 03:00N 47°41' W 122°25'5 9.4
2017-Jul-14 02:31N 47°46' W 122°25'5 9.3
2017-Jul-14 02:00N 47°51' W 122°27'5 9.7
2017-Jul-14 01:31N 47°54' W 122°31'22 9.8
2017-Jul-13 23:15N 48°10' W 122°54'410.0
2017-Jul-13 22:52N 48°11' W 122°60'410.0
2017-Jul-13 22:29N 48°11' W 123°06'4 9.0
2017-Jul-13 22:00N 48°10' W 123°12'4 7.9
2017-Jul-13 21:30N 48°09' W 123°18'5 8.8
2017-Jul-13 21:00N 48°08' W 123°24'2 4.3
2017-Jul-13 20:30N 48°08' W 123°27'1 1.4
2017-Jul-13 20:00N 48°08' W 123°26'2 3.2
2017-Jul-13 19:30N 48°09' W 123°27'3 6.6
2017-Jul-13 19:00N 48°10' W 123°32'4 7.6
2017-Jul-13 18:30N 48°10' W 123°38'3 6.5
2017-Jul-13 18:01N 48°11' W 123°42'3 6.3
2017-Jul-13 17:31N 48°11' W 123°47'4 7.2
2017-Jul-13 17:00N 48°12' W 123°52'4 7.1
2017-Jul-13 16:30N 48°13' W 123°57'4 7.7
2017-Jul-13 15:59N 48°15' W 124°03'4 7.6
2017-Jul-13 15:29N 48°16' W 124°08'4 8.3
2017-Jul-13 15:00N 48°18' W 124°14'4 8.2
2017-Jul-13 14:30N 48°19' W 124°19'4 8.0
2017-Jul-13 14:01N 48°21' W 124°25'4 8.0
2017-Jul-13 13:31N 48°22' W 124°31'4 8.3
2017-Jul-13 13:00N 48°22' W 124°37'0 0.2
2017-Jul-13 12:29N 48°22' W 124°37'0 0.0
2017-Jul-13 11:59N 48°22' W 124°37'0 0.0
2017-Jul-13 11:29N 48°22' W 124°37'0 0.0
2017-Jul-13 10:59N 48°22' W 124°37'0 0.0
2017-Jul-13 10:29N 48°22' W 124°37'0 0.0
2017-Jul-13 09:59N 48°22' W 124°37'0 0.0
2017-Jul-13 09:29N 48°22' W 124°37'0 0.0
2017-Jul-13 09:00N 48°22' W 124°37'0 0.0
2017-Jul-13 08:30N 48°22' W 124°37'0 0.0
2017-Jul-13 08:00N 48°22' W 124°37'1 2.5
2017-Jul-13 07:30N 48°24' W 124°37'4 7.0
2017-Jul-13 06:59N 48°24' W 124°42'3 6.2
2017-Jul-13 06:30N 48°22' W 124°46'4 7.9
2017-Jul-13 06:00N 48°18' W 124°47'4 7.9
2017-Jul-13 05:30N 48°14' W 124°48'6 0.1
2017-Jul-11 14:37N 48°09' W 124°50'110.0
2017-Jul-11 14:29N 48°10' W 124°50'5 9.4
2017-Jul-11 13:59N 48°15' W 124°51'5 8.9
2017-Jul-11 13:27N 48°19' W 124°47'4 8.6
2017-Jul-11 12:59N 48°23' W 124°45'4 8.7
2017-Jul-11 12:31N 48°24' W 124°39'3 5.2
2017-Jul-11 12:01N 48°22' W 124°37'  
Track history (hours):
 
Tides and Currents Weather Stations Pressure Air Temp Water Temp Dewpoint Dewpoint Depression Visibility Wind Speed Wind Dir Waves Ship Positions

Oceanographic research ship Jack Robertson (United States)

Owner: University of Washington Applied Physics Laboratory, Seattle, WA. More information available from US FCC via Universal Licensing System and Coast Guard Vessel Documentation Center.

Last reported at 2017-Jul-21 04:32 UTC. Time now 2017-Jul-23 16:30 UTC.
Position N 47°39' W 122°19'.

; draft 1.7 m.

Type: Other ship. MMSI: 367374350.

Date/timePositionNaut miles runAvg speedWind from/ knotsBaromVisibWave heightAir tempDewpointWater temp
2017-Jul-21 04:32N 47°39' W 122°19'0 0.0
2017-Jul-21 04:31N 47°39' W 122°19'2 3.8
2017-Jul-21 04:00N 47°39' W 122°22'2 3.2
2017-Jul-21 03:31N 47°40' W 122°24'3 6.4
2017-Jul-21 03:00N 47°43' W 122°24'4 8.4
2017-Jul-21 02:31N 47°47' W 122°26'4 8.5
2017-Jul-21 02:00N 47°51' W 122°29'4 8.1
2017-Jul-21 01:30N 47°55' W 122°31'21 0.8
2017-Jul-19 23:11N 48°07' W 122°57'  
2017-Jul-17 01:45N 48°04' W 123°02'2 5.9
2017-Jul-17 01:29N 48°05' W 123°01'5 8.3
2017-Jul-17 00:55N 48°07' W 122°55'4 8.1
2017-Jul-17 00:29N 48°09' W 122°50'15 7.9
2017-Jul-16 22:36N 47°59' W 122°34'110.2
2017-Jul-16 22:30N 47°58' W 122°33'5 9.5
2017-Jul-16 22:00N 47°54' W 122°28'5 9.4
2017-Jul-16 21:30N 47°50' W 122°26'4 8.9
2017-Jul-16 21:00N 47°46' W 122°24'5 9.0
2017-Jul-16 20:30N 47°41' W 122°25'1 3.0
2017-Jul-16 20:00N 47°40' W 122°24'0 0.4
2017-Jul-16 19:30N 47°40' W 122°23'3 5.6
2017-Jul-16 19:00N 47°39' W 122°19'  
2017-Jul-14 04:21N 47°39' W 122°19'1 2.2
2017-Jul-14 04:01N 47°39' W 122°20'3 5.9
2017-Jul-14 03:31N 47°40' W 122°24'2 3.4
2017-Jul-14 03:00N 47°41' W 122°25'5 9.4
2017-Jul-14 02:31N 47°46' W 122°25'5 9.3
2017-Jul-14 02:00N 47°51' W 122°27'5 9.7
2017-Jul-14 01:31N 47°54' W 122°31'22 9.8
2017-Jul-13 23:15N 48°10' W 122°54'410.0
2017-Jul-13 22:52N 48°11' W 122°60'410.0
2017-Jul-13 22:29N 48°11' W 123°06'4 9.0
2017-Jul-13 22:00N 48°10' W 123°12'4 7.9
2017-Jul-13 21:30N 48°09' W 123°18'5 8.8
2017-Jul-13 21:00N 48°08' W 123°24'2 4.3
2017-Jul-13 20:30N 48°08' W 123°27'1 1.4
2017-Jul-13 20:00N 48°08' W 123°26'2 3.2
2017-Jul-13 19:30N 48°09' W 123°27'3 6.6
2017-Jul-13 19:00N 48°10' W 123°32'4 7.6
2017-Jul-13 18:30N 48°10' W 123°38'3 6.5
2017-Jul-13 18:01N 48°11' W 123°42'3 6.3
2017-Jul-13 17:31N 48°11' W 123°47'4 7.2
2017-Jul-13 17:00N 48°12' W 123°52'4 7.1
2017-Jul-13 16:30N 48°13' W 123°57'4 7.7
2017-Jul-13 15:59N 48°15' W 124°03'4 7.6
2017-Jul-13 15:29N 48°16' W 124°08'4 8.3
2017-Jul-13 15:00N 48°18' W 124°14'4 8.2
2017-Jul-13 14:30N 48°19' W 124°19'4 8.0
2017-Jul-13 14:01N 48°21' W 124°25'4 8.0
2017-Jul-13 13:31N 48°22' W 124°31'4 8.3
2017-Jul-13 13:00N 48°22' W 124°37'0 0.2
2017-Jul-13 12:29N 48°22' W 124°37'0 0.0
2017-Jul-13 11:59N 48°22' W 124°37'0 0.0
2017-Jul-13 11:29N 48°22' W 124°37'0 0.0
2017-Jul-13 10:59N 48°22' W 124°37'0 0.0
2017-Jul-13 10:29N 48°22' W 124°37'0 0.0
2017-Jul-13 09:59N 48°22' W 124°37'0 0.0
2017-Jul-13 09:29N 48°22' W 124°37'0 0.0
2017-Jul-13 09:00N 48°22' W 124°37'0 0.0
2017-Jul-13 08:30N 48°22' W 124°37'0 0.0
2017-Jul-13 08:00N 48°22' W 124°37'1 2.5
2017-Jul-13 07:30N 48°24' W 124°37'4 7.0
2017-Jul-13 06:59N 48°24' W 124°42'3 6.2
2017-Jul-13 06:30N 48°22' W 124°46'4 7.9
2017-Jul-13 06:00N 48°18' W 124°47'4 7.9
2017-Jul-13 05:30N 48°14' W 124°48'6 0.1
2017-Jul-11 14:37N 48°09' W 124°50'110.0
2017-Jul-11 14:29N 48°10' W 124°50'5 9.4
2017-Jul-11 13:59N 48°15' W 124°51'5 8.9
2017-Jul-11 13:27N 48°19' W 124°47'4 8.6
2017-Jul-11 12:59N 48°23' W 124°45'4 8.7
2017-Jul-11 12:31N 48°24' W 124°39'3 5.2
2017-Jul-11 12:01N 48°22' W 124°37'  

Dump ship's entire track history